Time;durP1;ratioP1;P1;durP2;ratioP2;P2;SDS_P1;SDS_P2;PMS_P1;PMS_P2;Temp;Humidity;BMP_temperature;BMP_pressure;BME280_temperature;BME280_humidity;BME280_pressure;Samples;Min_cycle;Max_cycle;Signal;HPM_P1;HPM_P2
2022/01/04 00:02:21;;;;;;;;;;;8.60;99.90;;;;;;5049709;28;20489;-70
2022/01/04 00:04:47;;;;;;;;;;;8.60;99.90;;;;;;5048738;28;19995;-70
2022/01/04 00:07:13;;;;;;;;;;;8.60;99.90;;;;;;5047372;28;19916;-70
2022/01/04 00:09:41;;;;;;;;;;;8.60;99.90;;;;;;5050536;28;19913;-70
2022/01/04 00:14:55;;;;;;;;;;;8.60;99.90;;;;;;5050987;28;19993;-70
2022/01/04 00:17:20;;;;;;;;;;;8.60;99.90;;;;;;5029430;28;20255;-70
2022/01/04 00:19:46;;;;;;;;;;;8.60;99.90;;;;;;5047179;28;19935;-70
2022/01/04 00:22:12;;;;;;;;;;;8.60;99.90;;;;;;5049796;28;19944;-70
2022/01/04 00:24:37;;;;;;;;;;;8.60;99.90;;;;;;5048031;28;20250;-70
2022/01/04 00:27:03;;;;;;;;;;;8.60;99.90;;;;;;5029035;28;20256;-70
2022/01/04 00:29:29;;;;;;;;;;;8.60;99.90;;;;;;5053703;28;20033;-70
2022/01/04 00:31:54;;;;;;;;;;;8.50;99.90;;;;;;5047032;28;20370;-70
2022/01/04 00:34:20;;;;;;;;;;;8.50;99.90;;;;;;5049887;28;19939;-70
2022/01/04 00:36:45;;;;;;;;;;;8.50;99.90;;;;;;5051051;28;19924;-70
2022/01/04 00:39:11;;;;;;;;;;;8.50;99.90;;;;;;5049947;28;20038;-70
2022/01/04 00:41:36;;;;;;;;;;;8.50;99.90;;;;;;5046079;28;19929;-70
2022/01/04 00:44:02;;;;;;;;;;;8.50;99.90;;;;;;5054017;28;19995;-70
2022/01/04 00:46:27;;;;;;;;;;;8.50;99.90;;;;;;5049227;28;19923;-70
2022/01/04 00:49:11;;;;;;;;;;;8.50;99.90;;;;;;5050122;28;19991;-70
2022/01/04 00:51:41;;;;;;;;;;;8.50;99.90;;;;;;5028625;28;20449;-70
2022/01/04 00:54:07;;;;;;;;;;;8.50;99.90;;;;;;5053178;28;19912;-70
2022/01/04 00:56:32;;;;;;;;;;;8.50;99.90;;;;;;5045791;28;19917;-70
2022/01/04 00:58:58;;;;;;;;;;;8.50;99.90;;;;;;5048418;28;20342;-70
2022/01/04 01:01:23;;;;;;;;;;;8.50;99.90;;;;;;5047713;28;19934;-70
2022/01/04 01:03:49;;;;;;;;;;;8.50;99.90;;;;;;5049295;28;19913;-70
2022/01/04 01:06:15;;;;;;;;;;;8.50;99.90;;;;;;5049025;28;19927;-70
2022/01/04 01:08:41;;;;;;;;;;;8.50;99.90;;;;;;5063883;28;19924;-70
2022/01/04 01:11:08;;;;;;;;;;;8.50;99.90;;;;;;5049306;28;20062;-70
2022/01/04 01:13:33;;;;;;;;;;;8.50;99.90;;;;;;5047773;28;19916;-70
2022/01/04 01:15:59;;;;;;;;;;;8.40;99.90;;;;;;5048934;28;19913;-70
2022/01/04 01:18:24;;;;;;;;;;;8.50;99.90;;;;;;5047555;28;19909;-70
2022/01/04 01:20:50;;;;;;;;;;;8.40;99.90;;;;;;5035751;28;19923;-70
2022/01/04 01:23:16;;;;;;;;;;;8.50;99.90;;;;;;5049113;28;19913;-70
2022/01/04 01:25:41;;;;;;;;;;;8.40;99.90;;;;;;5051090;28;20374;-70
2022/01/04 01:28:07;;;;;;;;;;;8.50;99.90;;;;;;5046422;28;19924;-70
2022/01/04 01:30:36;;;;;;;;;;;8.40;99.90;;;;;;5047866;28;20427;-70
2022/01/04 01:33:01;;;;;;;;;;;8.40;99.90;;;;;;5048111;28;19917;-70
2022/01/04 01:35:27;;;;;;;;;;;8.40;99.90;;;;;;5033289;28;19916;-70
2022/01/04 01:37:52;;;;;;;;;;;8.40;99.90;;;;;;5050224;28;19928;-70
2022/01/04 01:40:18;;;;;;;;;;;8.40;99.90;;;;;;5034994;28;19913;-70
2022/01/04 01:42:43;;;;;;;;;;;8.40;99.90;;;;;;5051667;28;19917;-70
2022/01/04 01:45:10;;;;;;;;;;;8.40;99.90;;;;;;5049752;28;19917;-70
2022/01/04 01:47:38;;;;;;;;;;;8.40;99.90;;;;;;5051922;28;19916;-70
2022/01/04 01:50:04;;;;;;;;;;;8.40;99.90;;;;;;5048867;28;20397;-70
2022/01/04 01:52:30;;;;;;;;;;;8.40;99.90;;;;;;5034613;28;19947;-70
2022/01/04 01:54:56;;;;;;;;;;;8.40;99.90;;;;;;5050396;28;20447;-70
2022/01/04 01:57:22;;;;;;;;;;;8.40;99.90;;;;;;5051767;28;19923;-70
2022/01/04 01:59:48;;;;;;;;;;;8.40;99.90;;;;;;5046870;28;19912;-70
2022/01/04 02:02:13;;;;;;;;;;;8.40;99.90;;;;;;5051571;28;20387;-70
2022/01/04 02:04:39;;;;;;;;;;;8.40;99.90;;;;;;5048687;28;19923;-70
2022/01/04 02:07:05;;;;;;;;;;;8.40;99.90;;;;;;5052799;28;19913;-70
2022/01/04 02:09:31;;;;;;;;;;;8.40;99.90;;;;;;5049240;28;20293;-70
2022/01/04 02:11:57;;;;;;;;;;;8.40;99.90;;;;;;5051343;28;19917;-70
2022/01/04 02:14:24;;;;;;;;;;;8.30;99.90;;;;;;5049659;28;20036;-70
2022/01/04 02:16:49;;;;;;;;;;;8.30;99.90;;;;;;5049342;28;20243;-70
2022/01/04 02:19:16;;;;;;;;;;;8.40;99.90;;;;;;5049756;28;19962;-70
2022/01/04 02:21:42;;;;;;;;;;;8.30;99.90;;;;;;5034464;28;19913;-70
2022/01/04 02:24:07;;;;;;;;;;;8.30;99.90;;;;;;5052237;28;19920;-70
2022/01/04 02:26:33;;;;;;;;;;;8.30;99.90;;;;;;5046375;28;19913;-70
2022/01/04 02:28:59;;;;;;;;;;;8.30;99.90;;;;;;5051463;28;20378;-70
2022/01/04 02:31:26;;;;;;;;;;;8.30;99.90;;;;;;5031081;28;19936;-70
2022/01/04 02:33:52;;;;;;;;;;;8.30;99.90;;;;;;5070266;28;19909;-70
2022/01/04 02:36:17;;;;;;;;;;;8.30;99.90;;;;;;5047540;28;21483;-70
2022/01/04 02:38:43;;;;;;;;;;;8.30;99.90;;;;;;5053577;28;19952;-70
2022/01/04 02:41:08;;;;;;;;;;;8.30;99.90;;;;;;5047905;28;19916;-70
2022/01/04 02:43:34;;;;;;;;;;;8.30;99.90;;;;;;5040668;28;19912;-70
2022/01/04 02:46:00;;;;;;;;;;;8.30;99.90;;;;;;5049222;28;19916;-70
2022/01/04 02:48:25;;;;;;;;;;;8.30;99.90;;;;;;5050636;28;19913;-70
2022/01/04 02:50:51;;;;;;;;;;;8.30;99.90;;;;;;5048798;28;20007;-70
2022/01/04 02:53:17;;;;;;;;;;;8.30;99.90;;;;;;5054711;28;19909;-70
2022/01/04 02:55:42;;;;;;;;;;;8.30;99.90;;;;;;5053897;28;20012;-70
2022/01/04 02:58:08;;;;;;;;;;;8.30;99.90;;;;;;5051611;28;20341;-70
2022/01/04 03:00:33;;;;;;;;;;;8.30;99.90;;;;;;5049798;28;19917;-70
2022/01/04 03:02:59;;;;;;;;;;;8.30;99.90;;;;;;5048799;28;20337;-70
2022/01/04 03:05:24;;;;;;;;;;;8.30;99.90;;;;;;5049887;28;19916;-70
2022/01/04 03:07:50;;;;;;;;;;;8.30;99.90;;;;;;5053997;28;19913;-70
2022/01/04 03:10:16;;;;;;;;;;;8.30;99.90;;;;;;5053974;28;19931;-70
2022/01/04 03:12:43;;;;;;;;;;;8.30;99.90;;;;;;5032447;28;19909;-70
2022/01/04 03:15:09;;;;;;;;;;;8.30;99.90;;;;;;5056405;28;19920;-70
2022/01/04 03:17:35;;;;;;;;;;;8.20;99.90;;;;;;5049909;28;19928;-70
2022/01/04 03:20:00;;;;;;;;;;;8.20;99.90;;;;;;5052367;28;19917;-70
2022/01/04 03:22:25;;;;;;;;;;;8.30;99.90;;;;;;5047669;28;19927;-70
2022/01/04 03:24:51;;;;;;;;;;;8.30;99.90;;;;;;5052150;28;19951;-70
2022/01/04 03:27:17;;;;;;;;;;;8.20;99.90;;;;;;5049038;28;20008;-70
2022/01/04 03:29:43;;;;;;;;;;;8.20;99.90;;;;;;5051121;28;20011;-70
2022/01/04 03:32:08;;;;;;;;;;;8.20;99.90;;;;;;5047343;28;19984;-70
2022/01/04 03:34:34;;;;;;;;;;;8.20;99.90;;;;;;5050980;28;19928;-70
2022/01/04 03:36:59;;;;;;;;;;;8.20;99.90;;;;;;5030943;28;19909;-70
2022/01/04 03:39:25;;;;;;;;;;;8.20;99.90;;;;;;5048488;28;20028;-70
2022/01/04 03:41:51;;;;;;;;;;;8.20;99.90;;;;;;5049311;28;19917;-70
2022/01/04 03:44:20;;;;;;;;;;;8.20;99.90;;;;;;5050391;28;19965;-70
2022/01/04 03:46:50;;;;;;;;;;;8.20;99.90;;;;;;5048786;28;19965;-70
2022/01/04 03:49:15;;;;;;;;;;;8.20;99.90;;;;;;5047584;28;19947;-70
2022/01/04 03:51:41;;;;;;;;;;;8.20;99.90;;;;;;5050278;28;19967;-70
2022/01/04 03:54:06;;;;;;;;;;;8.20;99.90;;;;;;5048156;28;19913;-70
2022/01/04 03:56:32;;;;;;;;;;;8.20;99.90;;;;;;5051248;28;19913;-70
2022/01/04 03:58:57;;;;;;;;;;;8.20;99.90;;;;;;5051347;28;20335;-70
2022/01/04 04:01:23;;;;;;;;;;;8.20;99.90;;;;;;5050543;28;20387;-70
2022/01/04 04:03:48;;;;;;;;;;;8.20;99.90;;;;;;5049144;28;20023;-70
2022/01/04 04:06:14;;;;;;;;;;;8.20;99.90;;;;;;5047716;28;19921;-70
2022/01/04 04:08:40;;;;;;;;;;;8.20;99.90;;;;;;5053530;28;21151;-70
2022/01/04 04:11:05;;;;;;;;;;;8.20;99.90;;;;;;5048855;28;20400;-70
2022/01/04 04:13:31;;;;;;;;;;;8.20;99.90;;;;;;5050293;28;19921;-70
2022/01/04 04:15:56;;;;;;;;;;;8.20;99.90;;;;;;5046766;28;19913;-70
2022/01/04 04:18:22;;;;;;;;;;;8.20;99.90;;;;;;5056075;28;19971;-70
2022/01/04 04:20:47;;;;;;;;;;;8.20;99.90;;;;;;5047531;28;20455;-70
2022/01/04 04:23:13;;;;;;;;;;;8.20;99.90;;;;;;5051881;28;19936;-70
2022/01/04 04:25:39;;;;;;;;;;;8.20;99.90;;;;;;5050044;28;19913;-70
2022/01/04 04:28:04;;;;;;;;;;;8.20;99.90;;;;;;5050268;28;19934;-70
2022/01/04 04:30:30;;;;;;;;;;;8.10;99.90;;;;;;5049300;28;19924;-70
2022/01/04 04:32:55;;;;;;;;;;;8.20;99.90;;;;;;5053568;28;20354;-70
2022/01/04 04:35:21;;;;;;;;;;;8.20;99.90;;;;;;5050226;28;19920;-70
2022/01/04 04:37:47;;;;;;;;;;;8.20;99.90;;;;;;5032705;28;19951;-70
2022/01/04 04:40:12;;;;;;;;;;;8.10;99.90;;;;;;5049900;28;19950;-70
2022/01/04 04:42:38;;;;;;;;;;;8.20;99.90;;;;;;5047480;28;19958;-70
2022/01/04 04:45:04;;;;;;;;;;;8.10;99.90;;;;;;5047436;28;19920;-70
2022/01/04 04:47:30;;;;;;;;;;;8.10;99.90;;;;;;5066647;28;20360;-70
2022/01/04 04:49:55;;;;;;;;;;;8.20;99.90;;;;;;5050798;28;19963;-70
2022/01/04 04:52:21;;;;;;;;;;;8.10;99.90;;;;;;5048764;28;19913;-70
2022/01/04 04:54:47;;;;;;;;;;;8.20;99.90;;;;;;5051206;28;19925;-70
2022/01/04 04:57:12;;;;;;;;;;;8.10;99.90;;;;;;5032943;28;20009;-70
2022/01/04 04:59:38;;;;;;;;;;;8.10;99.90;;;;;;5049557;28;19944;-70
2022/01/04 05:02:04;;;;;;;;;;;8.10;99.90;;;;;;5046831;28;19921;-70
2022/01/04 05:04:30;;;;;;;;;;;8.20;99.90;;;;;;5053027;28;19912;-70
2022/01/04 05:06:55;;;;;;;;;;;8.10;99.90;;;;;;5051250;28;20019;-70
2022/01/04 05:09:21;;;;;;;;;;;8.10;99.90;;;;;;5057378;28;19920;-70
2022/01/04 05:11:46;;;;;;;;;;;8.10;99.90;;;;;;5053982;28;20503;-70
2022/01/04 05:14:12;;;;;;;;;;;8.10;99.90;;;;;;5055810;28;20560;-70
2022/01/04 05:16:37;;;;;;;;;;;8.10;99.90;;;;;;5052589;28;19992;-70
2022/01/04 05:19:03;;;;;;;;;;;8.10;99.90;;;;;;5057833;28;19920;-70
2022/01/04 05:21:28;;;;;;;;;;;8.10;99.90;;;;;;5050391;28;20415;-70
2022/01/04 05:23:54;;;;;;;;;;;8.10;99.90;;;;;;5058053;28;19936;-70
2022/01/04 05:26:20;;;;;;;;;;;8.10;99.90;;;;;;5052726;28;19916;-70
2022/01/04 05:28:46;;;;;;;;;;;8.10;99.90;;;;;;5053872;28;20365;-70
2022/01/04 05:31:12;;;;;;;;;;;8.10;99.90;;;;;;5052712;28;19962;-70
2022/01/04 05:33:37;;;;;;;;;;;8.10;99.90;;;;;;5049802;28;19917;-70
2022/01/04 05:36:03;;;;;;;;;;;8.10;99.90;;;;;;5052231;28;19923;-70
2022/01/04 05:38:28;;;;;;;;;;;8.10;99.90;;;;;;5050834;28;19920;-70
2022/01/04 05:40:54;;;;;;;;;;;8.10;99.90;;;;;;5051743;28;19909;-70
2022/01/04 05:43:19;;;;;;;;;;;8.10;99.90;;;;;;5050544;28;19963;-70
2022/01/04 05:45:45;;;;;;;;;;;8.10;99.90;;;;;;5052099;28;19916;-70
2022/01/04 05:48:10;;;;;;;;;;;8.10;99.90;;;;;;5048909;28;19956;-70
2022/01/04 05:50:38;;;;;;;;;;;8.10;99.90;;;;;;5052213;28;21172;-70
2022/01/04 05:53:03;;;;;;;;;;;8.10;99.90;;;;;;5054692;28;19952;-70
2022/01/04 05:55:29;;;;;;;;;;;8.10;99.90;;;;;;5053257;28;19959;-70
2022/01/04 05:57:54;;;;;;;;;;;8.10;99.90;;;;;;5051231;28;20003;-70
2022/01/04 06:00:20;;;;;;;;;;;8.10;99.90;;;;;;5053279;28;20382;-70
2022/01/04 06:02:45;;;;;;;;;;;8.00;99.90;;;;;;5053535;28;19909;-70
2022/01/04 06:05:11;;;;;;;;;;;8.10;99.90;;;;;;5045664;28;19982;-70
2022/01/04 06:07:37;;;;;;;;;;;8.10;99.90;;;;;;5053660;28;19952;-70
2022/01/04 06:10:03;;;;;;;;;;;8.10;99.90;;;;;;5031136;28;19967;-70
2022/01/04 06:15:02;;;;;;;;;;;8.00;99.90;;;;;;5053813;28;19920;-70
2022/01/04 06:17:32;;;;;;;;;;;8.00;99.90;;;;;;5051877;28;20374;-70
2022/01/04 06:19:58;;;;;;;;;;;8.00;99.90;;;;;;5044065;28;19919;-70
2022/01/04 06:22:24;;;;;;;;;;;8.00;99.90;;;;;;5051856;28;19913;-70
2022/01/04 06:24:50;;;;;;;;;;;8.00;99.90;;;;;;5049795;28;19920;-70
2022/01/04 06:27:16;;;;;;;;;;;8.00;99.90;;;;;;5056042;28;19981;-70
2022/01/04 06:29:42;;;;;;;;;;;8.00;99.90;;;;;;5048004;28;20345;-70
2022/01/04 06:32:08;;;;;;;;;;;8.00;99.90;;;;;;5052491;28;19924;-70
2022/01/04 06:34:35;;;;;;;;;;;8.00;99.90;;;;;;5048103;28;19966;-70
2022/01/04 06:37:00;;;;;;;;;;;8.00;99.90;;;;;;5051766;28;19909;-70
2022/01/04 06:39:26;;;;;;;;;;;8.00;99.90;;;;;;5049088;28;19920;-70
2022/01/04 06:41:51;;;;;;;;;;;8.00;99.90;;;;;;5050901;28;19943;-70
2022/01/04 06:44:17;;;;;;;;;;;8.00;99.90;;;;;;5050557;28;19913;-70
2022/01/04 06:46:45;;;;;;;;;;;8.00;99.90;;;;;;5049364;28;19920;-70
2022/01/04 06:49:12;;;;;;;;;;;8.00;99.90;;;;;;5050565;28;19917;-70
2022/01/04 06:51:38;;;;;;;;;;;8.00;99.90;;;;;;5054795;28;19981;-70
2022/01/04 06:54:04;;;;;;;;;;;8.00;99.90;;;;;;5054714;28;19956;-70
2022/01/04 06:56:30;;;;;;;;;;;8.00;99.90;;;;;;5048319;28;20370;-70
2022/01/04 06:58:55;;;;;;;;;;;8.00;99.90;;;;;;5030649;28;19909;-70
2022/01/04 07:01:22;;;;;;;;;;;8.00;99.90;;;;;;5035919;28;19917;-70
2022/01/04 07:03:47;;;;;;;;;;;8.00;99.90;;;;;;5052386;28;20004;-70
2022/01/04 07:06:13;;;;;;;;;;;8.00;99.90;;;;;;5047669;28;20607;-70
2022/01/04 07:08:38;;;;;;;;;;;8.00;99.90;;;;;;5056299;28;19913;-70
2022/01/04 07:11:05;;;;;;;;;;;8.00;99.90;;;;;;5048411;28;19924;-70
2022/01/04 07:13:30;;;;;;;;;;;8.00;99.90;;;;;;5052270;28;19927;-70
2022/01/04 07:15:56;;;;;;;;;;;8.00;99.90;;;;;;5049236;28;19921;-70
2022/01/04 07:18:21;;;;;;;;;;;7.90;99.90;;;;;;5037529;28;19920;-70
2022/01/04 07:20:47;;;;;;;;;;;7.90;99.80;;;;;;5049115;28;19936;-70
2022/01/04 07:23:12;;;;;;;;;;;8.00;99.90;;;;;;5050692;28;19939;-70
2022/01/04 07:25:38;;;;;;;;;;;8.00;99.90;;;;;;5050810;28;19923;-70
2022/01/04 07:28:03;;;;;;;;;;;8.00;99.80;;;;;;5050031;28;19924;-70
2022/01/04 07:30:29;;;;;;;;;;;8.00;99.90;;;;;;5049646;28;19963;-70
2022/01/04 07:32:55;;;;;;;;;;;8.00;99.90;;;;;;5047810;28;19912;-70
2022/01/04 07:35:21;;;;;;;;;;;7.90;99.90;;;;;;5048160;28;19916;-70
2022/01/04 07:37:47;;;;;;;;;;;8.00;99.90;;;;;;5052750;28;19932;-70
2022/01/04 07:40:12;;;;;;;;;;;7.90;99.80;;;;;;5050960;28;20297;-70
2022/01/04 07:42:38;;;;;;;;;;;8.00;99.90;;;;;;5047930;28;19959;-70
2022/01/04 07:45:04;;;;;;;;;;;8.00;99.90;;;;;;5050452;28;19909;-70
2022/01/04 07:47:30;;;;;;;;;;;8.00;99.90;;;;;;5048144;28;19920;-70
2022/01/04 07:49:55;;;;;;;;;;;7.90;99.90;;;;;;5049102;28;19920;-70
2022/01/04 07:52:21;;;;;;;;;;;7.90;99.90;;;;;;5051146;28;20412;-70
2022/01/04 07:54:46;;;;;;;;;;;7.90;99.80;;;;;;5050787;28;20110;-70
2022/01/04 07:57:12;;;;;;;;;;;7.90;99.80;;;;;;5049438;28;19991;-70
2022/01/04 07:59:37;;;;;;;;;;;8.00;99.90;;;;;;5030515;28;20285;-70
2022/01/04 08:02:03;;;;;;;;;;;7.90;99.90;;;;;;5055949;28;19908;-70
2022/01/04 08:04:28;;;;;;;;;;;7.90;99.90;;;;;;5047620;28;19928;-70
2022/01/04 08:06:54;;;;;;;;;;;7.90;99.90;;;;;;5051828;28;19920;-70
2022/01/04 08:09:19;;;;;;;;;;;7.90;99.90;;;;;;5033001;28;20002;-70
2022/01/04 08:11:45;;;;;;;;;;;7.90;99.80;;;;;;5050086;28;19917;-70
2022/01/04 08:14:10;;;;;;;;;;;7.90;99.90;;;;;;5046865;28;20015;-70
2022/01/04 08:16:36;;;;;;;;;;;7.90;99.80;;;;;;5053305;28;19916;-70
2022/01/04 08:19:01;;;;;;;;;;;7.90;99.90;;;;;;5048042;28;20791;-70
2022/01/04 08:21:27;;;;;;;;;;;7.90;99.90;;;;;;5050682;28;19913;-70
2022/01/04 08:23:52;;;;;;;;;;;7.90;99.80;;;;;;5046559;28;19955;-70
2022/01/04 08:26:18;;;;;;;;;;;7.90;99.90;;;;;;5046264;28;20691;-70
2022/01/04 08:28:44;;;;;;;;;;;7.90;99.80;;;;;;5029431;28;19928;-70
2022/01/04 08:31:11;;;;;;;;;;;7.90;99.90;;;;;;5049487;28;19931;-70
2022/01/04 08:33:37;;;;;;;;;;;7.90;99.80;;;;;;5052760;28;19917;-70
2022/01/04 08:36:03;;;;;;;;;;;7.90;99.90;;;;;;5049220;28;20409;-70
2022/01/04 08:38:28;;;;;;;;;;;7.90;99.90;;;;;;5052146;28;19920;-70
2022/01/04 08:40:54;;;;;;;;;;;7.90;99.90;;;;;;5029758;28;19913;-70
2022/01/04 08:43:19;;;;;;;;;;;7.90;99.80;;;;;;5036868;28;19913;-70
2022/01/04 08:45:45;;;;;;;;;;;7.90;99.80;;;;;;5052461;28;20357;-70
2022/01/04 08:48:11;;;;;;;;;;;7.90;99.90;;;;;;5053350;28;20366;-70
2022/01/04 08:50:36;;;;;;;;;;;7.90;99.80;;;;;;5050232;28;19927;-70
2022/01/04 08:53:02;;;;;;;;;;;7.90;99.80;;;;;;5035057;28;19923;-70
2022/01/04 08:55:27;;;;;;;;;;;7.90;99.80;;;;;;5051684;28;19923;-70
2022/01/04 08:57:53;;;;;;;;;;;7.90;99.90;;;;;;5038515;28;19917;-70
2022/01/04 09:00:18;;;;;;;;;;;7.90;99.80;;;;;;5048940;28;19912;-70
2022/01/04 09:02:44;;;;;;;;;;;7.90;99.80;;;;;;5053398;28;19956;-70
2022/01/04 09:05:10;;;;;;;;;;;7.90;99.80;;;;;;5051159;28;19958;-70
2022/01/04 09:07:35;;;;;;;;;;;7.90;99.80;;;;;;5052387;28;19912;-70
2022/01/04 09:10:02;;;;;;;;;;;7.90;99.80;;;;;;5051030;28;19920;-70
2022/01/04 09:12:40;;;;;;;;;;;7.90;99.80;;;;;;5056515;28;19921;-70
2022/01/04 09:15:27;;;;;;;;;;;7.90;99.80;;;;;;5050584;28;19909;-70
2022/01/04 09:20:35;;;;;;;;;;;7.90;99.80;;;;;;5055450;28;19935;-70
2022/01/04 09:23:01;;;;;;;;;;;7.90;99.80;;;;;;5048910;28;20350;-70
2022/01/04 09:25:27;;;;;;;;;;;7.90;99.80;;;;;;5052840;28;19912;-70
2022/01/04 09:27:52;;;;;;;;;;;7.90;99.80;;;;;;5030587;28;19921;-70
2022/01/04 09:30:18;;;;;;;;;;;7.90;99.80;;;;;;5052093;28;20024;-70
2022/01/04 09:32:44;;;;;;;;;;;7.90;99.80;;;;;;5046719;28;21067;-70
2022/01/04 09:35:12;;;;;;;;;;;7.90;99.80;;;;;;5052493;28;19913;-70
2022/01/04 09:37:38;;;;;;;;;;;7.90;99.80;;;;;;5050135;28;19913;-70
2022/01/04 09:40:04;;;;;;;;;;;7.90;99.80;;;;;;5052732;28;19992;-70
2022/01/04 09:42:30;;;;;;;;;;;7.90;99.80;;;;;;5050868;28;20047;-70
2022/01/04 09:44:56;;;;;;;;;;;7.90;99.80;;;;;;5052247;28;19909;-70
2022/01/04 09:47:21;;;;;;;;;;;7.90;99.80;;;;;;5053363;28;19936;-70
2022/01/04 09:49:47;;;;;;;;;;;7.90;99.80;;;;;;5052479;28;20585;-70
2022/01/04 09:52:15;;;;;;;;;;;7.90;99.80;;;;;;5050051;28;19913;-70
2022/01/04 09:54:40;;;;;;;;;;;7.90;99.80;;;;;;5051245;28;19916;-70
2022/01/04 09:57:06;;;;;;;;;;;7.90;99.80;;;;;;5049395;28;19921;-70
2022/01/04 09:59:32;;;;;;;;;;;7.90;99.70;;;;;;5051354;28;19959;-70
2022/01/04 10:02:11;;;;;;;;;;;7.90;99.80;;;;;;5051936;28;20027;-70
2022/01/04 10:04:37;;;;;;;;;;;7.90;99.80;;;;;;5051808;28;19994;-70
2022/01/04 10:07:04;;;;;;;;;;;7.90;99.80;;;;;;5050196;28;19923;-70
2022/01/04 10:09:35;;;;;;;;;;;7.90;99.80;;;;;;5048426;28;19917;-70
2022/01/04 10:12:01;;;;;;;;;;;7.90;99.70;;;;;;5051720;28;19925;-70
2022/01/04 10:14:28;;;;;;;;;;;7.90;99.80;;;;;;5050622;28;20389;-70
2022/01/04 10:16:55;;;;;;;;;;;7.90;99.80;;;;;;5050931;28;20437;-70
2022/01/04 10:19:28;;;;;;;;;;;7.90;99.70;;;;;;5031789;28;19995;-70
2022/01/04 10:22:12;;;;;;;;;;;7.90;99.80;;;;;;5054663;28;19928;-70
2022/01/04 10:24:38;;;;;;;;;;;7.90;99.80;;;;;;5047616;28;20486;-70
2022/01/04 10:27:22;;;;;;;;;;;7.90;99.80;;;;;;5054131;28;19913;-70
2022/01/04 10:29:48;;;;;;;;;;;7.90;99.80;;;;;;5050115;28;21012;-70
2022/01/04 10:32:14;;;;;;;;;;;7.90;99.80;;;;;;5051405;28;19927;-70
2022/01/04 10:34:47;;;;;;;;;;;7.90;99.80;;;;;;5036573;28;20365;-70
2022/01/04 10:37:31;;;;;;;;;;;7.90;99.80;;;;;;5049945;28;20444;-70
2022/01/04 10:40:03;;;;;;;;;;;7.90;99.80;;;;;;5048695;28;19913;-70
2022/01/04 10:42:29;;;;;;;;;;;7.90;99.80;;;;;;5034151;28;19920;-70
2022/01/04 10:44:54;;;;;;;;;;;7.90;99.70;;;;;;5036438;28;19916;-70
2022/01/04 10:47:24;;;;;;;;;;;7.90;99.80;;;;;;5053823;28;20344;-70
2022/01/04 10:49:50;;;;;;;;;;;7.90;99.70;;;;;;5048635;28;19913;-70
2022/01/04 10:52:20;;;;;;;;;;;7.90;99.80;;;;;;5053814;28;19913;-70
2022/01/04 10:54:47;;;;;;;;;;;7.90;99.80;;;;;;5048154;28;19924;-70
2022/01/04 10:57:12;;;;;;;;;;;7.90;99.80;;;;;;5053583;28;19920;-70
2022/01/04 10:59:38;;;;;;;;;;;7.90;99.80;;;;;;5049137;28;20656;-70
2022/01/04 11:02:04;;;;;;;;;;;7.90;99.80;;;;;;5052171;28;19919;-70
2022/01/04 11:04:29;;;;;;;;;;;7.90;99.80;;;;;;5048551;28;19908;-70
2022/01/04 11:06:59;;;;;;;;;;;7.90;99.80;;;;;;5051883;28;19959;-70
2022/01/04 11:09:24;;;;;;;;;;;7.90;99.70;;;;;;5051828;28;20463;-69
2022/01/04 11:11:50;;;;;;;;;;;7.90;99.70;;;;;;5048943;28;20020;-70
2022/01/04 11:14:15;;;;;;;;;;;7.90;99.80;;;;;;5050993;28;19947;-70
2022/01/04 11:16:42;;;;;;;;;;;7.90;99.80;;;;;;5063296;28;19923;-70
2022/01/04 11:19:07;;;;;;;;;;;7.90;99.80;;;;;;5051860;28;20273;-70
2022/01/04 11:21:41;;;;;;;;;;;7.90;99.70;;;;;;5060382;28;19913;-70
2022/01/04 11:24:08;;;;;;;;;;;7.90;99.70;;;;;;5048603;28;19917;-70
2022/01/04 11:26:38;;;;;;;;;;;7.90;99.70;;;;;;5047913;28;19921;-70
2022/01/04 11:29:04;;;;;;;;;;;7.90;99.70;;;;;;5066272;28;20324;-70
2022/01/04 11:31:47;;;;;;;;;;;7.90;99.70;;;;;;5034063;28;19943;-70
2022/01/04 11:34:32;;;;;;;;;;;7.90;99.70;;;;;;5049169;28;20289;-70
2022/01/04 11:36:57;;;;;;;;;;;8.00;99.70;;;;;;5045125;28;19912;-70
2022/01/04 11:39:25;;;;;;;;;;;7.90;99.70;;;;;;5050138;28;19915;-70
2022/01/04 11:41:51;;;;;;;;;;;7.90;99.70;;;;;;5046569;28;19920;-69
2022/01/04 11:44:18;;;;;;;;;;;7.90;99.70;;;;;;5050695;28;19920;-70
2022/01/04 11:46:44;;;;;;;;;;;7.90;99.70;;;;;;5048328;28;19916;-70
2022/01/04 11:49:13;;;;;;;;;;;7.90;99.70;;;;;;5047969;28;19920;-70
2022/01/04 11:51:43;;;;;;;;;;;7.90;99.70;;;;;;5046745;28;19925;-70
2022/01/04 11:54:20;;;;;;;;;;;7.90;99.70;;;;;;5047875;28;20301;-70
2022/01/04 11:57:06;;;;;;;;;;;7.90;99.80;;;;;;5046895;28;19921;-70
2022/01/04 11:59:34;;;;;;;;;;;7.90;99.70;;;;;;5050537;28;19960;-70
2022/01/04 12:02:18;;;;;;;;;;;8.00;99.70;;;;;;5046377;28;19916;-70
2022/01/04 12:05:16;;;;;;;;;;;8.00;99.70;;;;;;5055332;28;19909;-70
2022/01/04 12:07:44;;;;;;;;;;;8.00;99.70;;;;;;5006005;28;19975;-70
2022/01/04 12:10:16;;;;;;;;;;;8.00;99.70;;;;;;5055367;28;19916;-70
2022/01/04 12:12:56;;;;;;;;;;;8.00;99.60;;;;;;5046249;28;20333;-70
2022/01/04 12:15:34;;;;;;;;;;;8.00;99.60;;;;;;5034297;28;19909;-70
2022/01/04 12:18:28;;;;;;;;;;;8.10;99.70;;;;;;5047233;28;19913;-70
2022/01/04 12:20:58;;;;;;;;;;;8.10;99.70;;;;;;5055595;28;20030;-70
2022/01/04 12:23:30;;;;;;;;;;;8.00;99.70;;;;;;5047296;28;19970;-70
2022/01/04 12:26:16;;;;;;;;;;;8.00;99.70;;;;;;5040012;28;20250;-70
2022/01/04 12:29:00;;;;;;;;;;;8.00;99.70;;;;;;5038897;28;19921;-70
2022/01/04 12:31:26;;;;;;;;;;;8.00;99.70;;;;;;5051908;28;19991;-70
2022/01/04 12:33:55;;;;;;;;;;;8.00;99.70;;;;;;5046040;28;19925;-70
2022/01/04 12:36:29;;;;;;;;;;;8.10;99.70;;;;;;5031461;28;21068;-70
2022/01/04 12:38:57;;;;;;;;;;;8.00;99.70;;;;;;5047225;28;19913;-70
2022/01/04 12:41:23;;;;;;;;;;;8.00;99.70;;;;;;5048578;28;19999;-70
2022/01/04 12:43:50;;;;;;;;;;;8.00;99.70;;;;;;5048670;28;20023;-70
2022/01/04 12:46:26;;;;;;;;;;;8.00;99.70;;;;;;5052021;28;20533;-70
2022/01/04 12:48:53;;;;;;;;;;;8.00;99.80;;;;;;5047187;28;19921;-70
2022/01/04 12:51:24;;;;;;;;;;;8.00;99.70;;;;;;5048652;28;19917;-70
2022/01/04 12:53:50;;;;;;;;;;;8.00;99.80;;;;;;5048720;28;19909;-70
2022/01/04 12:56:16;;;;;;;;;;;8.00;99.70;;;;;;5049464;28;19913;-70
2022/01/04 12:58:42;;;;;;;;;;;8.10;99.80;;;;;;5050117;28;19915;-70
2022/01/04 13:01:07;;;;;;;;;;;8.00;99.90;;;;;;5045577;28;19968;-70
2022/01/04 13:03:33;;;;;;;;;;;8.00;99.80;;;;;;5051916;28;19987;-70
2022/01/04 13:06:04;;;;;;;;;;;8.00;99.70;;;;;;5050956;28;19913;-70
2022/01/04 13:08:30;;;;;;;;;;;8.00;99.80;;;;;;5048447;28;20284;-70
2022/01/04 13:11:21;;;;;;;;;;;8.00;99.80;;;;;;5028179;28;19921;-70
2022/01/04 13:13:53;;;;;;;;;;;8.00;99.80;;;;;;5046649;28;20273;-70
2022/01/04 13:16:20;;;;;;;;;;;8.00;99.80;;;;;;5046788;28;19924;-70
2022/01/04 13:18:46;;;;;;;;;;;8.00;99.80;;;;;;5049657;28;19963;-70
2022/01/04 13:21:11;;;;;;;;;;;8.00;99.80;;;;;;5049187;28;19925;-70
2022/01/04 13:23:37;;;;;;;;;;;8.00;99.80;;;;;;5049306;28;20304;-70
2022/01/04 13:26:03;;;;;;;;;;;8.00;99.80;;;;;;5049545;28;19916;-70
2022/01/04 13:28:29;;;;;;;;;;;8.00;99.80;;;;;;5052065;28;19913;-70
2022/01/04 13:30:54;;;;;;;;;;;8.00;99.80;;;;;;5033068;28;19917;-70
2022/01/04 13:33:23;;;;;;;;;;;8.00;99.80;;;;;;5051287;28;19920;-70
2022/01/04 13:35:48;;;;;;;;;;;8.00;99.80;;;;;;5049007;28;19966;-70
2022/01/04 13:38:20;;;;;;;;;;;8.00;99.80;;;;;;5050187;28;19920;-70
2022/01/04 13:40:47;;;;;;;;;;;8.00;99.80;;;;;;5048914;28;19959;-70
2022/01/04 13:43:12;;;;;;;;;;;8.00;99.80;;;;;;5035791;28;19987;-70
2022/01/04 13:45:46;;;;;;;;;;;8.00;99.80;;;;;;5058152;28;20007;-70
2022/01/04 13:48:13;;;;;;;;;;;8.00;99.80;;;;;;5052910;28;19920;-70
2022/01/04 13:50:48;;;;;;;;;;;8.00;99.80;;;;;;5053489;28;19917;-70
2022/01/04 13:53:17;;;;;;;;;;;8.00;99.80;;;;;;5054798;28;19909;-70
2022/01/04 13:55:45;;;;;;;;;;;8.00;99.80;;;;;;5055968;28;19924;-70
2022/01/04 13:58:11;;;;;;;;;;;8.00;99.80;;;;;;5048925;28;19923;-70
2022/01/04 14:00:38;;;;;;;;;;;8.00;99.80;;;;;;5052450;28;19917;-70
2022/01/04 14:03:22;;;;;;;;;;;8.00;99.80;;;;;;5048877;28;19917;-70
2022/01/04 14:05:47;;;;;;;;;;;8.00;99.80;;;;;;5043363;28;19959;-70
2022/01/04 14:08:13;;;;;;;;;;;8.00;99.80;;;;;;5046072;28;19909;-70
2022/01/04 14:10:44;;;;;;;;;;;8.00;99.80;;;;;;5052126;28;20362;-70
2022/01/04 14:13:30;;;;;;;;;;;8.00;99.80;;;;;;5043457;28;19913;-70
2022/01/04 14:16:24;;;;;;;;;;;8.00;99.80;;;;;;5049917;28;19920;-70
2022/01/04 14:19:08;;;;;;;;;;;8.00;99.80;;;;;;5036385;28;19912;-69
2022/01/04 14:21:36;;;;;;;;;;;7.90;99.80;;;;;;5051181;28;19921;-70
2022/01/04 14:24:22;;;;;;;;;;;7.90;99.80;;;;;;5055234;28;19917;-70
2022/01/04 14:26:48;;;;;;;;;;;7.90;99.80;;;;;;5039546;28;20003;-70
2022/01/04 14:29:25;;;;;;;;;;;7.90;99.80;;;;;;5034207;28;19999;-70
2022/01/04 14:31:50;;;;;;;;;;;7.90;99.80;;;;;;5050928;28;19925;-70
2022/01/04 14:34:16;;;;;;;;;;;7.90;99.70;;;;;;5049874;28;19919;-70
2022/01/04 14:36:41;;;;;;;;;;;7.90;99.80;;;;;;5065503;28;19919;-70
2022/01/04 14:39:09;;;;;;;;;;;7.90;99.80;;;;;;5048328;28;19955;-70
2022/01/04 14:41:35;;;;;;;;;;;7.90;99.70;;;;;;5050657;28;19932;-70